sensor_id;sensor_type;location;lat;lon;timestamp;temperature;humidity
44565;DHT22;30275;51.822;-0.326;2022-07-06T00:01:18;20.40;84.50
44565;DHT22;30275;51.822;-0.326;2022-07-06T00:03:44;20.40;84.20
44565;DHT22;30275;51.822;-0.326;2022-07-06T00:06:10;20.40;84.00
44565;DHT22;30275;51.822;-0.326;2022-07-06T00:08:36;20.40;83.80
44565;DHT22;30275;51.822;-0.326;2022-07-06T00:11:02;20.20;83.50
44565;DHT22;30275;51.822;-0.326;2022-07-06T00:13:27;20.10;83.50
44565;DHT22;30275;51.822;-0.326;2022-07-06T00:15:53;19.90;83.50
44565;DHT22;30275;51.822;-0.326;2022-07-06T00:18:19;19.70;83.80
44565;DHT22;30275;51.822;-0.326;2022-07-06T00:20:45;19.50;84.10
44565;DHT22;30275;51.822;-0.326;2022-07-06T00:23:11;19.30;84.40
44565;DHT22;30275;51.822;-0.326;2022-07-06T00:25:36;19.10;84.50
44565;DHT22;30275;51.822;-0.326;2022-07-06T00:28:02;18.90;84.50
44565;DHT22;30275;51.822;-0.326;2022-07-06T00:30:28;18.80;84.90
44565;DHT22;30275;51.822;-0.326;2022-07-06T00:32:54;18.60;85.20
44565;DHT22;30275;51.822;-0.326;2022-07-06T00:35:19;18.50;85.70
44565;DHT22;30275;51.822;-0.326;2022-07-06T00:37:45;18.40;85.70
44565;DHT22;30275;51.822;-0.326;2022-07-06T00:40:11;18.30;85.60
44565;DHT22;30275;51.822;-0.326;2022-07-06T00:42:41;18.30;85.50
44565;DHT22;30275;51.822;-0.326;2022-07-06T00:45:08;18.10;85.50
44565;DHT22;30275;51.822;-0.326;2022-07-06T00:47:35;18.00;85.80
44565;DHT22;30275;51.822;-0.326;2022-07-06T00:50:02;17.80;85.90
44565;DHT22;30275;51.822;-0.326;2022-07-06T00:53:06;17.70;86.40
44565;DHT22;30275;51.822;-0.326;2022-07-06T00:55:38;17.60;86.60
44565;DHT22;30275;51.822;-0.326;2022-07-06T00:58:08;17.50;86.70
44565;DHT22;30275;51.822;-0.326;2022-07-06T01:00:34;17.40;86.90
44565;DHT22;30275;51.822;-0.326;2022-07-06T01:03:01;17.30;87.00
44565;DHT22;30275;51.822;-0.326;2022-07-06T01:05:27;17.20;87.40
44565;DHT22;30275;51.822;-0.326;2022-07-06T01:07:53;17.10;87.50
44565;DHT22;30275;51.822;-0.326;2022-07-06T01:10:20;17.00;87.70
44565;DHT22;30275;51.822;-0.326;2022-07-06T01:12:47;16.90;88.20
44565;DHT22;30275;51.822;-0.326;2022-07-06T01:15:19;16.80;88.50
44565;DHT22;30275;51.822;-0.326;2022-07-06T01:17:46;16.80;88.80
44565;DHT22;30275;51.822;-0.326;2022-07-06T01:20:14;16.70;88.80
44565;DHT22;30275;51.822;-0.326;2022-07-06T01:22:40;16.60;88.90
44565;DHT22;30275;51.822;-0.326;2022-07-06T01:25:07;16.50;88.90
44565;DHT22;30275;51.822;-0.326;2022-07-06T01:27:34;16.50;89.20
44565;DHT22;30275;51.822;-0.326;2022-07-06T01:30:04;16.50;89.30
44565;DHT22;30275;51.822;-0.326;2022-07-06T01:32:30;16.40;89.70
44565;DHT22;30275;51.822;-0.326;2022-07-06T01:34:56;16.40;90.00
44565;DHT22;30275;51.822;-0.326;2022-07-06T01:37:22;16.40;89.70
44565;DHT22;30275;51.822;-0.326;2022-07-06T01:39:47;16.30;89.50
44565;DHT22;30275;51.822;-0.326;2022-07-06T01:42:13;16.30;89.80
44565;DHT22;30275;51.822;-0.326;2022-07-06T01:44:38;16.20;90.00
44565;DHT22;30275;51.822;-0.326;2022-07-06T01:47:04;16.20;90.10
44565;DHT22;30275;51.822;-0.326;2022-07-06T01:49:30;16.20;90.30
44565;DHT22;30275;51.822;-0.326;2022-07-06T01:51:55;16.10;90.30
44565;DHT22;30275;51.822;-0.326;2022-07-06T01:54:21;16.20;90.30
44565;DHT22;30275;51.822;-0.326;2022-07-06T01:56:46;16.20;90.30
44565;DHT22;30275;51.822;-0.326;2022-07-06T01:59:12;16.20;90.30
44565;DHT22;30275;51.822;-0.326;2022-07-06T02:01:38;16.10;90.20
44565;DHT22;30275;51.822;-0.326;2022-07-06T02:04:04;16.10;90.30
44565;DHT22;30275;51.822;-0.326;2022-07-06T02:06:29;16.10;90.40
44565;DHT22;30275;51.822;-0.326;2022-07-06T02:08:55;16.00;90.40
44565;DHT22;30275;51.822;-0.326;2022-07-06T02:11:20;15.90;90.50
44565;DHT22;30275;51.822;-0.326;2022-07-06T02:13:46;15.90;90.70
44565;DHT22;30275;51.822;-0.326;2022-07-06T02:16:12;15.90;90.90
44565;DHT22;30275;51.822;-0.326;2022-07-06T02:18:39;16.00;91.00
44565;DHT22;30275;51.822;-0.326;2022-07-06T02:21:05;16.00;90.80
44565;DHT22;30275;51.822;-0.326;2022-07-06T02:23:30;16.00;90.70
44565;DHT22;30275;51.822;-0.326;2022-07-06T02:25:56;16.00;90.70
44565;DHT22;30275;51.822;-0.326;2022-07-06T02:28:22;15.90;90.80
44565;DHT22;30275;51.822;-0.326;2022-07-06T02:30:47;15.80;90.80
44565;DHT22;30275;51.822;-0.326;2022-07-06T02:33:13;15.80;90.90
44565;DHT22;30275;51.822;-0.326;2022-07-06T02:35:39;15.70;91.10
44565;DHT22;30275;51.822;-0.326;2022-07-06T02:38:08;15.70;91.10
44565;DHT22;30275;51.822;-0.326;2022-07-06T02:40:37;15.60;91.20
44565;DHT22;30275;51.822;-0.326;2022-07-06T02:43:03;15.50;91.20
44565;DHT22;30275;51.822;-0.326;2022-07-06T02:45:29;15.50;91.30
44565;DHT22;30275;51.822;-0.326;2022-07-06T02:47:55;15.50;91.30
44565;DHT22;30275;51.822;-0.326;2022-07-06T02:50:22;15.40;91.40
44565;DHT22;30275;51.822;-0.326;2022-07-06T02:52:47;15.40;91.50
44565;DHT22;30275;51.822;-0.326;2022-07-06T02:55:13;15.50;91.60
44565;DHT22;30275;51.822;-0.326;2022-07-06T02:57:39;15.50;91.70
44565;DHT22;30275;51.822;-0.326;2022-07-06T03:00:05;15.50;91.80
44565;DHT22;30275;51.822;-0.326;2022-07-06T03:02:31;15.50;92.10
44565;DHT22;30275;51.822;-0.326;2022-07-06T03:04:57;15.60;92.20
44565;DHT22;30275;51.822;-0.326;2022-07-06T03:07:23;15.70;92.40
44565;DHT22;30275;51.822;-0.326;2022-07-06T03:09:48;15.80;92.50
44565;DHT22;30275;51.822;-0.326;2022-07-06T03:12:14;15.90;92.50
44565;DHT22;30275;51.822;-0.326;2022-07-06T03:14:41;16.10;92.50
44565;DHT22;30275;51.822;-0.326;2022-07-06T03:17:07;16.10;92.50
44565;DHT22;30275;51.822;-0.326;2022-07-06T03:19:33;16.30;92.40
44565;DHT22;30275;51.822;-0.326;2022-07-06T03:21:58;16.30;92.50
44565;DHT22;30275;51.822;-0.326;2022-07-06T03:24:24;16.40;92.40
44565;DHT22;30275;51.822;-0.326;2022-07-06T03:26:50;16.40;92.30
44565;DHT22;30275;51.822;-0.326;2022-07-06T03:29:15;16.50;92.30
44565;DHT22;30275;51.822;-0.326;2022-07-06T03:31:41;16.50;92.30
44565;DHT22;30275;51.822;-0.326;2022-07-06T03:34:07;16.50;92.40
44565;DHT22;30275;51.822;-0.326;2022-07-06T03:36:32;16.50;92.40
44565;DHT22;30275;51.822;-0.326;2022-07-06T03:38:58;16.50;92.40
44565;DHT22;30275;51.822;-0.326;2022-07-06T03:41:24;16.50;92.50
44565;DHT22;30275;51.822;-0.326;2022-07-06T03:43:49;16.60;92.60
44565;DHT22;30275;51.822;-0.326;2022-07-06T03:46:15;16.70;92.80
44565;DHT22;30275;51.822;-0.326;2022-07-06T03:48:41;16.90;92.80
44565;DHT22;30275;51.822;-0.326;2022-07-06T03:51:06;17.10;92.60
44565;DHT22;30275;51.822;-0.326;2022-07-06T03:53:32;17.30;92.40
44565;DHT22;30275;51.822;-0.326;2022-07-06T03:55:58;17.40;92.20
44565;DHT22;30275;51.822;-0.326;2022-07-06T03:58:42;17.40;92.10
44565;DHT22;30275;51.822;-0.326;2022-07-06T04:01:08;17.30;92.00
44565;DHT22;30275;51.822;-0.326;2022-07-06T04:03:33;17.30;92.10
44565;DHT22;30275;51.822;-0.326;2022-07-06T04:05:59;17.20;92.20
44565;DHT22;30275;51.822;-0.326;2022-07-06T04:08:25;17.10;92.30
44565;DHT22;30275;51.822;-0.326;2022-07-06T04:10:50;17.10;92.40
44565;DHT22;30275;51.822;-0.326;2022-07-06T04:13:16;17.10;92.40
44565;DHT22;30275;51.822;-0.326;2022-07-06T04:15:42;17.10;92.40
44565;DHT22;30275;51.822;-0.326;2022-07-06T04:18:07;17.10;92.50
44565;DHT22;30275;51.822;-0.326;2022-07-06T04:20:33;17.00;92.50
44565;DHT22;30275;51.822;-0.326;2022-07-06T04:22:59;17.10;92.60
44565;DHT22;30275;51.822;-0.326;2022-07-06T04:25:24;17.10;92.70
44565;DHT22;30275;51.822;-0.326;2022-07-06T04:27:50;17.10;92.70
44565;DHT22;30275;51.822;-0.326;2022-07-06T04:30:16;17.10;92.70
44565;DHT22;30275;51.822;-0.326;2022-07-06T04:32:42;17.10;92.70
44565;DHT22;30275;51.822;-0.326;2022-07-06T04:35:08;17.10;92.60
44565;DHT22;30275;51.822;-0.326;2022-07-06T04:37:34;17.20;92.70
44565;DHT22;30275;51.822;-0.326;2022-07-06T04:40:00;17.10;92.70
44565;DHT22;30275;51.822;-0.326;2022-07-06T04:42:25;17.10;92.70
44565;DHT22;30275;51.822;-0.326;2022-07-06T04:44:51;17.20;92.90
44565;DHT22;30275;51.822;-0.326;2022-07-06T04:47:19;17.20;92.80
44565;DHT22;30275;51.822;-0.326;2022-07-06T04:49:45;17.40;92.90
44565;DHT22;30275;51.822;-0.326;2022-07-06T04:52:11;17.50;93.00
44565;DHT22;30275;51.822;-0.326;2022-07-06T04:54:37;17.60;92.50
44565;DHT22;30275;51.822;-0.326;2022-07-06T04:57:03;17.60;92.40
44565;DHT22;30275;51.822;-0.326;2022-07-06T04:59:29;17.70;92.30
44565;DHT22;30275;51.822;-0.326;2022-07-06T05:01:54;17.70;92.30
44565;DHT22;30275;51.822;-0.326;2022-07-06T05:04:20;17.80;92.30
44565;DHT22;30275;51.822;-0.326;2022-07-06T05:06:46;17.90;92.20
44565;DHT22;30275;51.822;-0.326;2022-07-06T05:09:15;18.00;92.10
44565;DHT22;30275;51.822;-0.326;2022-07-06T05:11:40;18.00;92.00
44565;DHT22;30275;51.822;-0.326;2022-07-06T05:14:06;18.10;92.00
44565;DHT22;30275;51.822;-0.326;2022-07-06T05:16:33;18.10;91.90
44565;DHT22;30275;51.822;-0.326;2022-07-06T05:18:59;18.20;91.80
44565;DHT22;30275;51.822;-0.326;2022-07-06T05:21:24;18.30;91.70
44565;DHT22;30275;51.822;-0.326;2022-07-06T05:23:50;18.30;91.60
44565;DHT22;30275;51.822;-0.326;2022-07-06T05:26:16;18.30;91.50
44565;DHT22;30275;51.822;-0.326;2022-07-06T05:28:42;18.30;91.40
44565;DHT22;30275;51.822;-0.326;2022-07-06T05:31:07;18.30;91.30
44565;DHT22;30275;51.822;-0.326;2022-07-06T05:33:33;18.40;91.40
44565;DHT22;30275;51.822;-0.326;2022-07-06T05:35:59;18.40;91.40
44565;DHT22;30275;51.822;-0.326;2022-07-06T05:38:24;18.50;91.30
44565;DHT22;30275;51.822;-0.326;2022-07-06T05:40:50;18.50;91.30
44565;DHT22;30275;51.822;-0.326;2022-07-06T05:43:16;18.60;91.20
44565;DHT22;30275;51.822;-0.326;2022-07-06T05:45:43;18.60;91.20
44565;DHT22;30275;51.822;-0.326;2022-07-06T05:48:08;18.60;91.20
44565;DHT22;30275;51.822;-0.326;2022-07-06T05:50:53;18.70;91.30
44565;DHT22;30275;51.822;-0.326;2022-07-06T05:53:18;18.80;91.20
44565;DHT22;30275;51.822;-0.326;2022-07-06T05:55:45;18.80;91.10
44565;DHT22;30275;51.822;-0.326;2022-07-06T05:58:10;18.90;91.10
44565;DHT22;30275;51.822;-0.326;2022-07-06T06:00:36;18.90;91.10
44565;DHT22;30275;51.822;-0.326;2022-07-06T06:03:02;18.90;91.10
44565;DHT22;30275;51.822;-0.326;2022-07-06T06:05:27;18.90;91.10
44565;DHT22;30275;51.822;-0.326;2022-07-06T06:07:53;19.00;91.20
44565;DHT22;30275;51.822;-0.326;2022-07-06T06:10:19;19.00;91.20
44565;DHT22;30275;51.822;-0.326;2022-07-06T06:12:47;19.10;91.30
44565;DHT22;30275;51.822;-0.326;2022-07-06T06:15:13;19.10;91.30
44565;DHT22;30275;51.822;-0.326;2022-07-06T06:17:39;19.10;91.40
44565;DHT22;30275;51.822;-0.326;2022-07-06T06:20:06;19.10;91.50
44565;DHT22;30275;51.822;-0.326;2022-07-06T06:22:47;19.00;91.50
44565;DHT22;30275;51.822;-0.326;2022-07-06T06:25:18;19.00;91.60
44565;DHT22;30275;51.822;-0.326;2022-07-06T06:27:44;19.00;91.70
44565;DHT22;30275;51.822;-0.326;2022-07-06T06:30:11;19.00;91.80
44565;DHT22;30275;51.822;-0.326;2022-07-06T06:32:37;19.00;91.90
44565;DHT22;30275;51.822;-0.326;2022-07-06T06:35:03;19.00;91.90
44565;DHT22;30275;51.822;-0.326;2022-07-06T06:37:30;19.10;92.00
44565;DHT22;30275;51.822;-0.326;2022-07-06T06:39:55;19.10;92.00
44565;DHT22;30275;51.822;-0.326;2022-07-06T06:42:21;19.10;91.90
44565;DHT22;30275;51.822;-0.326;2022-07-06T06:44:47;19.20;91.90
44565;DHT22;30275;51.822;-0.326;2022-07-06T06:47:13;19.20;91.90
44565;DHT22;30275;51.822;-0.326;2022-07-06T06:49:38;19.30;91.80
44565;DHT22;30275;51.822;-0.326;2022-07-06T06:52:04;19.30;92.10
44565;DHT22;30275;51.822;-0.326;2022-07-06T06:54:30;19.30;91.80
44565;DHT22;30275;51.822;-0.326;2022-07-06T06:56:55;19.40;91.80
44565;DHT22;30275;51.822;-0.326;2022-07-06T06:59:21;19.40;91.70
44565;DHT22;30275;51.822;-0.326;2022-07-06T07:01:46;19.50;91.70
44565;DHT22;30275;51.822;-0.326;2022-07-06T07:04:12;19.50;91.70
44565;DHT22;30275;51.822;-0.326;2022-07-06T07:06:38;19.50;91.60
44565;DHT22;30275;51.822;-0.326;2022-07-06T07:09:04;19.50;91.60
44565;DHT22;30275;51.822;-0.326;2022-07-06T07:11:30;19.60;91.60
44565;DHT22;30275;51.822;-0.326;2022-07-06T07:13:56;19.60;91.50
44565;DHT22;30275;51.822;-0.326;2022-07-06T07:16:22;19.60;91.50
44565;DHT22;30275;51.822;-0.326;2022-07-06T07:18:50;19.60;91.50
44565;DHT22;30275;51.822;-0.326;2022-07-06T07:21:15;19.70;91.50
44565;DHT22;30275;51.822;-0.326;2022-07-06T07:23:41;19.60;91.40
44565;DHT22;30275;51.822;-0.326;2022-07-06T07:26:07;19.70;91.40
44565;DHT22;30275;51.822;-0.326;2022-07-06T07:28:33;19.70;91.40
44565;DHT22;30275;51.822;-0.326;2022-07-06T07:30:58;19.80;91.40
44565;DHT22;30275;51.822;-0.326;2022-07-06T07:33:24;19.80;91.40
44565;DHT22;30275;51.822;-0.326;2022-07-06T07:35:49;19.90;91.60
44565;DHT22;30275;51.822;-0.326;2022-07-06T07:38:15;19.90;91.30
44565;DHT22;30275;51.822;-0.326;2022-07-06T07:40:41;19.90;91.30
44565;DHT22;30275;51.822;-0.326;2022-07-06T07:43:07;19.90;91.30
44565;DHT22;30275;51.822;-0.326;2022-07-06T07:45:32;20.00;91.30
44565;DHT22;30275;51.822;-0.326;2022-07-06T07:47:58;20.00;91.30
44565;DHT22;30275;51.822;-0.326;2022-07-06T07:50:24;20.10;91.40
44565;DHT22;30275;51.822;-0.326;2022-07-06T07:52:49;20.10;91.40
44565;DHT22;30275;51.822;-0.326;2022-07-06T07:55:15;20.20;91.50
44565;DHT22;30275;51.822;-0.326;2022-07-06T07:57:41;20.30;91.50
44565;DHT22;30275;51.822;-0.326;2022-07-06T08:00:07;20.40;91.50
44565;DHT22;30275;51.822;-0.326;2022-07-06T08:02:35;20.50;91.50
44565;DHT22;30275;51.822;-0.326;2022-07-06T08:05:01;20.60;91.50
44565;DHT22;30275;51.822;-0.326;2022-07-06T08:07:26;20.60;91.50
44565;DHT22;30275;51.822;-0.326;2022-07-06T08:09:52;20.70;91.50
44565;DHT22;30275;51.822;-0.326;2022-07-06T08:12:18;20.80;91.50
44565;DHT22;30275;51.822;-0.326;2022-07-06T08:14:43;20.90;91.60
44565;DHT22;30275;51.822;-0.326;2022-07-06T08:17:09;21.00;91.50
44565;DHT22;30275;51.822;-0.326;2022-07-06T08:19:34;21.10;91.50
44565;DHT22;30275;51.822;-0.326;2022-07-06T08:22:00;21.10;91.50
44565;DHT22;30275;51.822;-0.326;2022-07-06T08:24:26;21.10;91.40
44565;DHT22;30275;51.822;-0.326;2022-07-06T08:26:51;21.20;91.50
44565;DHT22;30275;51.822;-0.326;2022-07-06T08:29:17;21.20;91.40
44565;DHT22;30275;51.822;-0.326;2022-07-06T08:31:43;21.20;91.40
44565;DHT22;30275;51.822;-0.326;2022-07-06T08:34:08;21.20;91.40
44565;DHT22;30275;51.822;-0.326;2022-07-06T08:36:35;21.30;91.50
44565;DHT22;30275;51.822;-0.326;2022-07-06T08:39:00;21.30;91.60
44565;DHT22;30275;51.822;-0.326;2022-07-06T08:41:28;21.40;91.60
44565;DHT22;30275;51.822;-0.326;2022-07-06T08:43:55;21.60;91.70
44565;DHT22;30275;51.822;-0.326;2022-07-06T08:46:21;21.60;91.60
44565;DHT22;30275;51.822;-0.326;2022-07-06T08:48:48;21.70;91.50
44565;DHT22;30275;51.822;-0.326;2022-07-06T08:51:14;21.80;91.40
44565;DHT22;30275;51.822;-0.326;2022-07-06T08:53:44;21.80;91.40
44565;DHT22;30275;51.822;-0.326;2022-07-06T08:56:10;21.80;91.30
44565;DHT22;30275;51.822;-0.326;2022-07-06T08:58:36;21.80;91.50
44565;DHT22;30275;51.822;-0.326;2022-07-06T09:01:02;21.80;91.60
44565;DHT22;30275;51.822;-0.326;2022-07-06T09:03:28;21.90;92.00
44565;DHT22;30275;51.822;-0.326;2022-07-06T09:05:59;21.90;91.60
44565;DHT22;30275;51.822;-0.326;2022-07-06T09:08:27;22.00;91.60
44565;DHT22;30275;51.822;-0.326;2022-07-06T09:10:54;22.00;91.60
44565;DHT22;30275;51.822;-0.326;2022-07-06T09:13:19;21.90;91.50
44565;DHT22;30275;51.822;-0.326;2022-07-06T09:15:45;21.90;91.60
44565;DHT22;30275;51.822;-0.326;2022-07-06T09:18:10;21.90;91.60
44565;DHT22;30275;51.822;-0.326;2022-07-06T09:20:36;21.90;91.60
44565;DHT22;30275;51.822;-0.326;2022-07-06T09:23:05;21.90;91.60
44565;DHT22;30275;51.822;-0.326;2022-07-06T09:25:33;22.00;91.70
44565;DHT22;30275;51.822;-0.326;2022-07-06T09:28:00;22.00;91.70
44565;DHT22;30275;51.822;-0.326;2022-07-06T09:30:27;22.00;91.60
44565;DHT22;30275;51.822;-0.326;2022-07-06T09:32:57;22.10;91.60
44565;DHT22;30275;51.822;-0.326;2022-07-06T09:38:08;22.10;91.60
44565;DHT22;30275;51.822;-0.326;2022-07-06T09:40:36;22.20;91.70
44565;DHT22;30275;51.822;-0.326;2022-07-06T09:45:35;22.20;91.70
44565;DHT22;30275;51.822;-0.326;2022-07-06T09:48:13;22.20;91.70
44565;DHT22;30275;51.822;-0.326;2022-07-06T09:50:45;22.20;91.70
44565;DHT22;30275;51.822;-0.326;2022-07-06T09:53:12;22.30;91.70
44565;DHT22;30275;51.822;-0.326;2022-07-06T09:55:40;22.40;91.70
44565;DHT22;30275;51.822;-0.326;2022-07-06T09:58:08;22.40;91.60
44565;DHT22;30275;51.822;-0.326;2022-07-06T10:00:34;22.40;91.60
44565;DHT22;30275;51.822;-0.326;2022-07-06T10:03:00;22.50;91.60
44565;DHT22;30275;51.822;-0.326;2022-07-06T10:05:27;22.50;91.50
44565;DHT22;30275;51.822;-0.326;2022-07-06T10:08:00;22.60;91.50
44565;DHT22;30275;51.822;-0.326;2022-07-06T10:10:28;22.60;91.50
44565;DHT22;30275;51.822;-0.326;2022-07-06T10:12:56;22.60;91.50
44565;DHT22;30275;51.822;-0.326;2022-07-06T10:15:24;22.70;91.40
44565;DHT22;30275;51.822;-0.326;2022-07-06T10:17:50;22.80;91.40
44565;DHT22;30275;51.822;-0.326;2022-07-06T10:20:20;22.90;91.40
44565;DHT22;30275;51.822;-0.326;2022-07-06T10:22:49;23.00;91.40
44565;DHT22;30275;51.822;-0.326;2022-07-06T10:25:17;23.10;91.20
44565;DHT22;30275;51.822;-0.326;2022-07-06T10:27:45;23.10;91.20
44565;DHT22;30275;51.822;-0.326;2022-07-06T10:30:11;23.10;91.10
44565;DHT22;30275;51.822;-0.326;2022-07-06T10:32:39;23.20;91.10
44565;DHT22;30275;51.822;-0.326;2022-07-06T10:35:06;23.20;91.00
44565;DHT22;30275;51.822;-0.326;2022-07-06T10:37:32;23.20;90.90
44565;DHT22;30275;51.822;-0.326;2022-07-06T10:39:59;23.20;90.80
44565;DHT22;30275;51.822;-0.326;2022-07-06T10:42:49;23.10;90.70
44565;DHT22;30275;51.822;-0.326;2022-07-06T10:50:54;22.90;90.70
44565;DHT22;30275;51.822;-0.326;2022-07-06T10:53:25;22.90;90.70
44565;DHT22;30275;51.822;-0.326;2022-07-06T10:55:54;22.80;90.70
44565;DHT22;30275;51.822;-0.326;2022-07-06T11:01:11;22.90;90.80
44565;DHT22;30275;51.822;-0.326;2022-07-06T11:03:42;22.90;90.80
44565;DHT22;30275;51.822;-0.326;2022-07-06T11:08:53;22.90;90.80
44565;DHT22;30275;51.822;-0.326;2022-07-06T11:11:41;22.90;90.80
44565;DHT22;30275;51.822;-0.326;2022-07-06T11:14:13;22.80;90.80
44565;DHT22;30275;51.822;-0.326;2022-07-06T11:19:19;22.80;90.80
44565;DHT22;30275;51.822;-0.326;2022-07-06T11:21:52;22.80;90.80
44565;DHT22;30275;51.822;-0.326;2022-07-06T11:24:21;22.80;90.90
44565;DHT22;30275;51.822;-0.326;2022-07-06T11:26:49;22.80;90.90
44565;DHT22;30275;51.822;-0.326;2022-07-06T11:29:17;22.70;90.80
44565;DHT22;30275;51.822;-0.326;2022-07-06T11:31:44;22.70;91.10
44565;DHT22;30275;51.822;-0.326;2022-07-06T11:34:13;22.60;90.90
44565;DHT22;30275;51.822;-0.326;2022-07-06T11:36:41;22.60;90.90
44565;DHT22;30275;51.822;-0.326;2022-07-06T11:39:07;22.60;90.90
44565;DHT22;30275;51.822;-0.326;2022-07-06T11:41:34;22.50;90.90
44565;DHT22;30275;51.822;-0.326;2022-07-06T11:44:00;22.50;91.00
44565;DHT22;30275;51.822;-0.326;2022-07-06T11:46:28;22.50;91.00
44565;DHT22;30275;51.822;-0.326;2022-07-06T11:48:56;22.50;91.00
44565;DHT22;30275;51.822;-0.326;2022-07-06T11:51:24;22.50;91.00
44565;DHT22;30275;51.822;-0.326;2022-07-06T11:53:54;22.50;91.10
44565;DHT22;30275;51.822;-0.326;2022-07-06T11:56:21;22.50;91.10
44565;DHT22;30275;51.822;-0.326;2022-07-06T11:58:50;22.50;91.00
44565;DHT22;30275;51.822;-0.326;2022-07-06T12:01:17;22.50;91.00
44565;DHT22;30275;51.822;-0.326;2022-07-06T12:03:44;22.50;91.10
44565;DHT22;30275;51.822;-0.326;2022-07-06T12:06:18;22.50;91.10
44565;DHT22;30275;51.822;-0.326;2022-07-06T12:08:50;22.40;91.10
44565;DHT22;30275;51.822;-0.326;2022-07-06T12:11:26;22.50;91.10
44565;DHT22;30275;51.822;-0.326;2022-07-06T12:13:57;22.50;91.10
44565;DHT22;30275;51.822;-0.326;2022-07-06T12:16:34;22.40;91.10
44565;DHT22;30275;51.822;-0.326;2022-07-06T12:19:02;22.50;91.20
44565;DHT22;30275;51.822;-0.326;2022-07-06T12:21:28;22.50;91.20
44565;DHT22;30275;51.822;-0.326;2022-07-06T12:23:54;22.50;91.20
44565;DHT22;30275;51.822;-0.326;2022-07-06T12:26:22;22.50;91.20
44565;DHT22;30275;51.822;-0.326;2022-07-06T12:29:05;22.60;91.20
44565;DHT22;30275;51.822;-0.326;2022-07-06T12:31:39;22.60;91.20
44565;DHT22;30275;51.822;-0.326;2022-07-06T12:34:15;22.60;91.20
44565;DHT22;30275;51.822;-0.326;2022-07-06T12:36:54;22.70;91.20
44565;DHT22;30275;51.822;-0.326;2022-07-06T12:39:27;22.70;91.10
44565;DHT22;30275;51.822;-0.326;2022-07-06T12:42:02;22.70;91.10
44565;DHT22;30275;51.822;-0.326;2022-07-06T12:44:29;22.80;91.10
44565;DHT22;30275;51.822;-0.326;2022-07-06T12:47:05;22.70;91.10
44565;DHT22;30275;51.822;-0.326;2022-07-06T12:49:33;22.80;91.10
44565;DHT22;30275;51.822;-0.326;2022-07-06T12:52:17;22.80;91.10
44565;DHT22;30275;51.822;-0.326;2022-07-06T12:54:44;22.80;91.10
44565;DHT22;30275;51.822;-0.326;2022-07-06T12:59:48;22.80;91.00
44565;DHT22;30275;51.822;-0.326;2022-07-06T13:02:21;22.80;91.00
44565;DHT22;30275;51.822;-0.326;2022-07-06T13:07:26;22.80;90.90
44565;DHT22;30275;51.822;-0.326;2022-07-06T13:09:53;22.80;90.90
44565;DHT22;30275;51.822;-0.326;2022-07-06T13:12:20;22.80;90.90
44565;DHT22;30275;51.822;-0.326;2022-07-06T13:14:46;22.80;90.90
44565;DHT22;30275;51.822;-0.326;2022-07-06T13:17:12;22.80;90.90
44565;DHT22;30275;51.822;-0.326;2022-07-06T13:19:37;22.80;90.80
44565;DHT22;30275;51.822;-0.326;2022-07-06T13:22:03;22.80;90.90
44565;DHT22;30275;51.822;-0.326;2022-07-06T13:24:29;22.80;90.80
44565;DHT22;30275;51.822;-0.326;2022-07-06T13:26:56;22.80;90.80
44565;DHT22;30275;51.822;-0.326;2022-07-06T13:29:21;22.70;90.80
44565;DHT22;30275;51.822;-0.326;2022-07-06T13:31:47;22.80;90.80
44565;DHT22;30275;51.822;-0.326;2022-07-06T13:34:13;22.70;90.80
44565;DHT22;30275;51.822;-0.326;2022-07-06T13:36:39;22.70;90.80
44565;DHT22;30275;51.822;-0.326;2022-07-06T13:39:05;22.70;90.80
44565;DHT22;30275;51.822;-0.326;2022-07-06T13:41:31;22.70;90.90
44565;DHT22;30275;51.822;-0.326;2022-07-06T13:43:57;22.70;90.90
44565;DHT22;30275;51.822;-0.326;2022-07-06T13:46:29;22.80;90.90
44565;DHT22;30275;51.822;-0.326;2022-07-06T13:48:55;22.70;90.90
44565;DHT22;30275;51.822;-0.326;2022-07-06T13:51:23;22.80;90.90
44565;DHT22;30275;51.822;-0.326;2022-07-06T13:53:49;22.80;90.90
44565;DHT22;30275;51.822;-0.326;2022-07-06T13:56:15;22.80;90.90
44565;DHT22;30275;51.822;-0.326;2022-07-06T13:58:41;22.80;90.90
44565;DHT22;30275;51.822;-0.326;2022-07-06T14:01:07;22.90;90.90
44565;DHT22;30275;51.822;-0.326;2022-07-06T14:03:33;22.90;90.90
44565;DHT22;30275;51.822;-0.326;2022-07-06T14:05:59;22.90;90.90
44565;DHT22;30275;51.822;-0.326;2022-07-06T14:08:26;22.90;90.90
44565;DHT22;30275;51.822;-0.326;2022-07-06T14:10:52;22.90;90.90
44565;DHT22;30275;51.822;-0.326;2022-07-06T14:13:19;23.00;90.90
44565;DHT22;30275;51.822;-0.326;2022-07-06T14:15:45;22.90;90.90
44565;DHT22;30275;51.822;-0.326;2022-07-06T14:18:10;23.00;90.90
44565;DHT22;30275;51.822;-0.326;2022-07-06T14:20:36;23.00;90.90
44565;DHT22;30275;51.822;-0.326;2022-07-06T14:23:02;23.00;90.80
44565;DHT22;30275;51.822;-0.326;2022-07-06T14:25:28;23.00;90.80
44565;DHT22;30275;51.822;-0.326;2022-07-06T14:27:54;23.00;90.90
44565;DHT22;30275;51.822;-0.326;2022-07-06T14:30:19;23.00;90.80
44565;DHT22;30275;51.822;-0.326;2022-07-06T14:32:45;23.00;90.80
44565;DHT22;30275;51.822;-0.326;2022-07-06T14:35:12;23.00;90.80
44565;DHT22;30275;51.822;-0.326;2022-07-06T14:37:37;23.00;90.90
44565;DHT22;30275;51.822;-0.326;2022-07-06T14:40:04;23.00;90.80
44565;DHT22;30275;51.822;-0.326;2022-07-06T14:42:30;23.10;90.70
44565;DHT22;30275;51.822;-0.326;2022-07-06T14:44:56;23.10;90.70
44565;DHT22;30275;51.822;-0.326;2022-07-06T14:47:21;23.10;90.70
44565;DHT22;30275;51.822;-0.326;2022-07-06T14:49:47;23.10;90.70
44565;DHT22;30275;51.822;-0.326;2022-07-06T14:52:13;23.10;90.70
44565;DHT22;30275;51.822;-0.326;2022-07-06T14:54:40;23.20;90.70
44565;DHT22;30275;51.822;-0.326;2022-07-06T14:57:06;23.10;90.60
44565;DHT22;30275;51.822;-0.326;2022-07-06T14:59:34;23.10;90.50
44565;DHT22;30275;51.822;-0.326;2022-07-06T15:02:01;23.10;90.50
44565;DHT22;30275;51.822;-0.326;2022-07-06T15:04:27;23.10;90.50
44565;DHT22;30275;51.822;-0.326;2022-07-06T15:06:53;23.00;90.50
44565;DHT22;30275;51.822;-0.326;2022-07-06T15:09:18;23.10;90.50
44565;DHT22;30275;51.822;-0.326;2022-07-06T15:25:10;23.00;90.10
44565;DHT22;30275;51.822;-0.326;2022-07-06T15:27:35;23.30;90.20
44565;DHT22;30275;51.822;-0.326;2022-07-06T15:30:01;23.20;90.20
44565;DHT22;30275;51.822;-0.326;2022-07-06T15:32:27;23.20;90.20
44565;DHT22;30275;51.822;-0.326;2022-07-06T15:34:52;23.20;90.20
44565;DHT22;30275;51.822;-0.326;2022-07-06T15:37:18;23.20;90.30
44565;DHT22;30275;51.822;-0.326;2022-07-06T15:39:44;23.10;90.30
44565;DHT22;30275;51.822;-0.326;2022-07-06T15:42:09;23.10;90.40
44565;DHT22;30275;51.822;-0.326;2022-07-06T15:44:35;23.10;90.40
44565;DHT22;30275;51.822;-0.326;2022-07-06T15:47:07;23.20;90.50
44565;DHT22;30275;51.822;-0.326;2022-07-06T15:49:33;23.20;90.50
44565;DHT22;30275;51.822;-0.326;2022-07-06T15:51:59;23.20;90.50